sensor_id;sensor_type;location;lat;lon;timestamp;P1;durP1;ratioP1;P2;durP2;ratioP2
38693;SDS011;24447;43.460;25.744;2022-10-31T00:00:21;13.70;;;6.68;;
38693;SDS011;24447;43.460;25.744;2022-10-31T00:02:47;9.38;;;4.45;;
38693;SDS011;24447;43.460;25.744;2022-10-31T00:05:13;14.30;;;6.97;;
38693;SDS011;24447;43.460;25.744;2022-10-31T00:07:39;17.88;;;6.65;;
38693;SDS011;24447;43.460;25.744;2022-10-31T00:10:05;10.35;;;4.60;;
38693;SDS011;24447;43.460;25.744;2022-10-31T00:12:32;10.15;;;4.05;;
38693;SDS011;24447;43.460;25.744;2022-10-31T00:14:58;9.88;;;4.60;;
38693;SDS011;24447;43.460;25.744;2022-10-31T00:17:23;9.52;;;4.45;;
38693;SDS011;24447;43.460;25.744;2022-10-31T00:19:49;16.88;;;5.90;;
38693;SDS011;24447;43.460;25.744;2022-10-31T00:22:15;12.90;;;6.47;;
38693;SDS011;24447;43.460;25.744;2022-10-31T00:24:41;14.82;;;6.15;;
38693;SDS011;24447;43.460;25.744;2022-10-31T00:27:07;13.43;;;5.18;;
38693;SDS011;24447;43.460;25.744;2022-10-31T00:29:33;9.80;;;4.40;;
38693;SDS011;24447;43.460;25.744;2022-10-31T00:31:59;11.07;;;4.82;;
38693;SDS011;24447;43.460;25.744;2022-10-31T00:34:25;10.20;;;5.18;;
38693;SDS011;24447;43.460;25.744;2022-10-31T00:36:51;9.20;;;4.85;;
38693;SDS011;24447;43.460;25.744;2022-10-31T00:39:17;12.73;;;5.32;;
38693;SDS011;24447;43.460;25.744;2022-10-31T00:41:43;14.00;;;5.50;;
38693;SDS011;24447;43.460;25.744;2022-10-31T00:44:09;11.02;;;5.20;;
38693;SDS011;24447;43.460;25.744;2022-10-31T00:46:35;9.50;;;4.90;;
38693;SDS011;24447;43.460;25.744;2022-10-31T00:49:00;15.00;;;6.30;;
38693;SDS011;24447;43.460;25.744;2022-10-31T00:51:26;13.75;;;5.78;;
38693;SDS011;24447;43.460;25.744;2022-10-31T00:53:52;16.77;;;6.18;;
38693;SDS011;24447;43.460;25.744;2022-10-31T00:56:18;9.75;;;4.80;;
38693;SDS011;24447;43.460;25.744;2022-10-31T00:58:44;9.38;;;4.50;;
38693;SDS011;24447;43.460;25.744;2022-10-31T01:01:10;13.85;;;4.70;;
38693;SDS011;24447;43.460;25.744;2022-10-31T01:03:36;11.80;;;5.57;;
38693;SDS011;24447;43.460;25.744;2022-10-31T01:08:29;11.98;;;4.88;;
38693;SDS011;24447;43.460;25.744;2022-10-31T01:11:03;11.52;;;4.97;;
38693;SDS011;24447;43.460;25.744;2022-10-31T01:13:34;15.02;;;6.75;;
38693;SDS011;24447;43.460;25.744;2022-10-31T01:16:00;14.25;;;5.50;;
38693;SDS011;24447;43.460;25.744;2022-10-31T01:18:27;13.88;;;6.50;;
38693;SDS011;24447;43.460;25.744;2022-10-31T01:20:57;13.57;;;5.80;;
38693;SDS011;24447;43.460;25.744;2022-10-31T01:23:34;18.17;;;7.07;;
38693;SDS011;24447;43.460;25.744;2022-10-31T01:26:20;11.63;;;4.32;;
38693;SDS011;24447;43.460;25.744;2022-10-31T01:28:48;7.03;;;4.25;;
38693;SDS011;24447;43.460;25.744;2022-10-31T01:31:15;10.90;;;4.25;;
38693;SDS011;24447;43.460;25.744;2022-10-31T01:33:42;16.05;;;4.97;;
38693;SDS011;24447;43.460;25.744;2022-10-31T01:36:16;14.73;;;5.53;;
38693;SDS011;24447;43.460;25.744;2022-10-31T01:38:45;10.15;;;4.70;;
38693;SDS011;24447;43.460;25.744;2022-10-31T01:41:12;6.20;;;3.55;;
38693;SDS011;24447;43.460;25.744;2022-10-31T01:46:13;9.57;;;3.53;;
38693;SDS011;24447;43.460;25.744;2022-10-31T01:48:40;15.75;;;5.97;;
38693;SDS011;24447;43.460;25.744;2022-10-31T01:51:06;11.95;;;4.72;;
38693;SDS011;24447;43.460;25.744;2022-10-31T01:53:33;8.65;;;3.83;;
38693;SDS011;24447;43.460;25.744;2022-10-31T01:56:00;7.53;;;4.30;;
38693;SDS011;24447;43.460;25.744;2022-10-31T01:58:27;10.40;;;4.28;;
38693;SDS011;24447;43.460;25.744;2022-10-31T02:00:55;9.70;;;4.03;;
38693;SDS011;24447;43.460;25.744;2022-10-31T02:03:22;11.13;;;4.80;;
38693;SDS011;24447;43.460;25.744;2022-10-31T02:05:49;9.15;;;3.95;;
38693;SDS011;24447;43.460;25.744;2022-10-31T02:08:29;7.88;;;3.80;;
38693;SDS011;24447;43.460;25.744;2022-10-31T02:10:56;8.55;;;3.67;;
38693;SDS011;24447;43.460;25.744;2022-10-31T02:13:23;13.50;;;6.68;;
38693;SDS011;24447;43.460;25.744;2022-10-31T02:15:53;11.70;;;4.53;;
38693;SDS011;24447;43.460;25.744;2022-10-31T02:18:22;8.15;;;4.55;;
38693;SDS011;24447;43.460;25.744;2022-10-31T02:20:55;8.77;;;4.50;;
38693;SDS011;24447;43.460;25.744;2022-10-31T02:32:25;7.63;;;4.28;;
38693;SDS011;24447;43.460;25.744;2022-10-31T02:37:34;9.57;;;4.82;;
38693;SDS011;24447;43.460;25.744;2022-10-31T02:40:08;10.48;;;5.63;;
38693;SDS011;24447;43.460;25.744;2022-10-31T02:42:43;6.10;;;3.92;;
38693;SDS011;24447;43.460;25.744;2022-10-31T02:45:21;8.80;;;4.63;;
38693;SDS011;24447;43.460;25.744;2022-10-31T02:48:00;10.80;;;4.50;;
38693;SDS011;24447;43.460;25.744;2022-10-31T02:50:33;7.28;;;4.25;;
38693;SDS011;24447;43.460;25.744;2022-10-31T02:53:01;7.38;;;3.58;;
38693;SDS011;24447;43.460;25.744;2022-10-31T02:57:58;9.20;;;4.03;;
38693;SDS011;24447;43.460;25.744;2022-10-31T03:00:26;12.15;;;5.10;;
38693;SDS011;24447;43.460;25.744;2022-10-31T03:08:21;11.02;;;4.53;;
38693;SDS011;24447;43.460;25.744;2022-10-31T03:16:25;8.85;;;4.32;;
38693;SDS011;24447;43.460;25.744;2022-10-31T03:21:53;8.50;;;4.00;;
38693;SDS011;24447;43.460;25.744;2022-10-31T03:24:26;14.93;;;6.83;;
38693;SDS011;24447;43.460;25.744;2022-10-31T03:26:54;18.85;;;8.43;;
38693;SDS011;24447;43.460;25.744;2022-10-31T03:29:22;15.05;;;7.60;;
38693;SDS011;24447;43.460;25.744;2022-10-31T03:31:55;18.75;;;7.03;;
38693;SDS011;24447;43.460;25.744;2022-10-31T03:34:24;12.43;;;5.85;;
38693;SDS011;24447;43.460;25.744;2022-10-31T03:36:50;10.02;;;5.15;;
38693;SDS011;24447;43.460;25.744;2022-10-31T03:39:18;12.02;;;5.38;;
38693;SDS011;24447;43.460;25.744;2022-10-31T03:44:46;15.60;;;6.28;;
38693;SDS011;24447;43.460;25.744;2022-10-31T03:47:17;15.98;;;5.63;;
38693;SDS011;24447;43.460;25.744;2022-10-31T03:49:43;19.75;;;7.55;;
38693;SDS011;24447;43.460;25.744;2022-10-31T03:54:52;21.35;;;7.88;;
38693;SDS011;24447;43.460;25.744;2022-10-31T03:57:27;17.73;;;7.30;;
38693;SDS011;24447;43.460;25.744;2022-10-31T04:00:05;15.38;;;6.47;;
38693;SDS011;24447;43.460;25.744;2022-10-31T04:02:37;17.17;;;6.47;;
38693;SDS011;24447;43.460;25.744;2022-10-31T04:05:05;17.10;;;6.03;;
38693;SDS011;24447;43.460;25.744;2022-10-31T04:07:33;15.10;;;7.05;;
38693;SDS011;24447;43.460;25.744;2022-10-31T04:10:04;13.55;;;6.50;;
38693;SDS011;24447;43.460;25.744;2022-10-31T04:12:34;13.98;;;5.40;;
38693;SDS011;24447;43.460;25.744;2022-10-31T04:15:00;13.30;;;6.03;;
38693;SDS011;24447;43.460;25.744;2022-10-31T04:17:29;9.63;;;4.35;;
38693;SDS011;24447;43.460;25.744;2022-10-31T04:19:58;17.77;;;7.53;;
38693;SDS011;24447;43.460;25.744;2022-10-31T04:22:25;8.77;;;4.70;;
38693;SDS011;24447;43.460;25.744;2022-10-31T04:24:51;17.42;;;6.53;;
38693;SDS011;24447;43.460;25.744;2022-10-31T04:27:17;16.65;;;7.55;;
38693;SDS011;24447;43.460;25.744;2022-10-31T04:29:43;10.40;;;4.82;;
38693;SDS011;24447;43.460;25.744;2022-10-31T04:32:09;14.43;;;5.00;;
38693;SDS011;24447;43.460;25.744;2022-10-31T04:34:35;11.10;;;5.00;;
38693;SDS011;24447;43.460;25.744;2022-10-31T04:37:01;11.98;;;5.22;;
38693;SDS011;24447;43.460;25.744;2022-10-31T04:39:27;13.27;;;6.53;;
38693;SDS011;24447;43.460;25.744;2022-10-31T04:41:53;13.80;;;5.45;;
38693;SDS011;24447;43.460;25.744;2022-10-31T04:44:19;12.95;;;5.80;;
38693;SDS011;24447;43.460;25.744;2022-10-31T04:46:45;15.20;;;6.30;;
38693;SDS011;24447;43.460;25.744;2022-10-31T04:49:11;9.10;;;4.57;;
38693;SDS011;24447;43.460;25.744;2022-10-31T04:51:36;7.35;;;4.57;;
38693;SDS011;24447;43.460;25.744;2022-10-31T04:54:02;14.43;;;5.25;;
38693;SDS011;24447;43.460;25.744;2022-10-31T04:56:28;11.00;;;5.53;;
38693;SDS011;24447;43.460;25.744;2022-10-31T04:58:54;15.00;;;5.95;;
38693;SDS011;24447;43.460;25.744;2022-10-31T05:01:20;13.75;;;6.10;;
38693;SDS011;24447;43.460;25.744;2022-10-31T05:03:46;13.70;;;5.35;;
38693;SDS011;24447;43.460;25.744;2022-10-31T05:06:12;13.52;;;5.47;;
38693;SDS011;24447;43.460;25.744;2022-10-31T05:08:38;14.73;;;5.28;;
38693;SDS011;24447;43.460;25.744;2022-10-31T05:11:04;12.15;;;5.88;;
38693;SDS011;24447;43.460;25.744;2022-10-31T05:13:30;22.08;;;10.23;;
38693;SDS011;24447;43.460;25.744;2022-10-31T05:15:56;22.88;;;8.02;;
38693;SDS011;24447;43.460;25.744;2022-10-31T05:18:22;13.75;;;5.80;;
38693;SDS011;24447;43.460;25.744;2022-10-31T05:20:48;12.23;;;5.85;;
38693;SDS011;24447;43.460;25.744;2022-10-31T05:23:14;14.75;;;6.78;;
38693;SDS011;24447;43.460;25.744;2022-10-31T05:25:40;15.75;;;6.47;;
38693;SDS011;24447;43.460;25.744;2022-10-31T05:28:07;13.32;;;5.47;;
38693;SDS011;24447;43.460;25.744;2022-10-31T05:30:33;15.18;;;5.20;;
38693;SDS011;24447;43.460;25.744;2022-10-31T05:32:59;18.45;;;6.43;;
38693;SDS011;24447;43.460;25.744;2022-10-31T05:35:26;9.88;;;4.85;;
38693;SDS011;24447;43.460;25.744;2022-10-31T05:37:54;12.85;;;4.82;;
38693;SDS011;24447;43.460;25.744;2022-10-31T05:40:20;10.20;;;4.35;;
38693;SDS011;24447;43.460;25.744;2022-10-31T05:42:46;8.98;;;4.53;;
38693;SDS011;24447;43.460;25.744;2022-10-31T05:45:13;10.32;;;4.60;;
38693;SDS011;24447;43.460;25.744;2022-10-31T05:47:41;11.05;;;4.60;;
38693;SDS011;24447;43.460;25.744;2022-10-31T05:50:07;16.13;;;5.93;;
38693;SDS011;24447;43.460;25.744;2022-10-31T05:52:35;9.23;;;5.03;;
38693;SDS011;24447;43.460;25.744;2022-10-31T05:55:01;14.90;;;5.13;;
38693;SDS011;24447;43.460;25.744;2022-10-31T05:57:28;15.15;;;5.35;;
38693;SDS011;24447;43.460;25.744;2022-10-31T05:59:54;12.50;;;5.00;;
38693;SDS011;24447;43.460;25.744;2022-10-31T06:02:20;11.73;;;5.22;;
38693;SDS011;24447;43.460;25.744;2022-10-31T06:04:46;10.13;;;4.35;;
38693;SDS011;24447;43.460;25.744;2022-10-31T06:07:13;11.65;;;5.10;;
38693;SDS011;24447;43.460;25.744;2022-10-31T06:09:38;11.57;;;4.80;;
38693;SDS011;24447;43.460;25.744;2022-10-31T06:12:04;9.95;;;4.70;;
38693;SDS011;24447;43.460;25.744;2022-10-31T06:14:31;12.50;;;4.95;;
38693;SDS011;24447;43.460;25.744;2022-10-31T06:16:56;12.57;;;5.18;;
38693;SDS011;24447;43.460;25.744;2022-10-31T06:19:22;14.75;;;5.07;;
38693;SDS011;24447;43.460;25.744;2022-10-31T06:21:48;17.25;;;5.70;;
38693;SDS011;24447;43.460;25.744;2022-10-31T06:24:14;14.93;;;6.78;;
38693;SDS011;24447;43.460;25.744;2022-10-31T06:26:40;14.27;;;5.55;;
38693;SDS011;24447;43.460;25.744;2022-10-31T06:29:06;12.25;;;5.38;;
38693;SDS011;24447;43.460;25.744;2022-10-31T06:31:32;9.57;;;5.03;;
38693;SDS011;24447;43.460;25.744;2022-10-31T06:33:58;15.80;;;5.45;;
38693;SDS011;24447;43.460;25.744;2022-10-31T06:36:24;14.57;;;5.15;;
38693;SDS011;24447;43.460;25.744;2022-10-31T06:38:50;11.27;;;5.15;;
38693;SDS011;24447;43.460;25.744;2022-10-31T06:41:16;14.07;;;4.78;;
38693;SDS011;24447;43.460;25.744;2022-10-31T06:43:42;12.50;;;5.18;;
38693;SDS011;24447;43.460;25.744;2022-10-31T06:46:07;18.92;;;6.53;;
38693;SDS011;24447;43.460;25.744;2022-10-31T15:37:41;8.68;;;4.28;;
38693;SDS011;24447;43.460;25.744;2022-10-31T15:40:11;9.23;;;4.60;;
38693;SDS011;24447;43.460;25.744;2022-10-31T15:42:40;8.43;;;3.40;;
38693;SDS011;24447;43.460;25.744;2022-10-31T15:47:36;8.38;;;3.75;;
38693;SDS011;24447;43.460;25.744;2022-10-31T15:50:04;17.38;;;4.55;;
38693;SDS011;24447;43.460;25.744;2022-10-31T15:57:39;8.15;;;3.45;;
38693;SDS011;24447;43.460;25.744;2022-10-31T16:00:06;9.18;;;3.95;;
38693;SDS011;24447;43.460;25.744;2022-10-31T16:02:32;9.55;;;3.88;;
38693;SDS011;24447;43.460;25.744;2022-10-31T16:04:59;10.10;;;4.18;;
38693;SDS011;24447;43.460;25.744;2022-10-31T16:07:26;7.38;;;3.95;;
38693;SDS011;24447;43.460;25.744;2022-10-31T16:10:00;18.27;;;7.15;;
38693;SDS011;24447;43.460;25.744;2022-10-31T16:12:30;9.60;;;4.30;;
38693;SDS011;24447;43.460;25.744;2022-10-31T16:15:01;10.57;;;4.93;;
38693;SDS011;24447;43.460;25.744;2022-10-31T16:17:28;9.43;;;4.07;;
38693;SDS011;24447;43.460;25.744;2022-10-31T16:20:02;7.00;;;3.60;;
38693;SDS011;24447;43.460;25.744;2022-10-31T16:22:31;9.32;;;5.05;;
38693;SDS011;24447;43.460;25.744;2022-10-31T16:27:39;14.90;;;5.68;;
38693;SDS011;24447;43.460;25.744;2022-10-31T16:33:04;11.05;;;4.30;;
38693;SDS011;24447;43.460;25.744;2022-10-31T16:35:35;7.63;;;3.55;;
38693;SDS011;24447;43.460;25.744;2022-10-31T16:38:02;9.05;;;4.63;;
38693;SDS011;24447;43.460;25.744;2022-10-31T16:40:29;9.75;;;3.70;;
38693;SDS011;24447;43.460;25.744;2022-10-31T16:42:59;9.85;;;4.15;;
38693;SDS011;24447;43.460;25.744;2022-10-31T16:45:26;10.25;;;3.90;;
38693;SDS011;24447;43.460;25.744;2022-10-31T16:47:54;11.00;;;4.13;;
38693;SDS011;24447;43.460;25.744;2022-10-31T16:50:28;10.10;;;4.32;;
38693;SDS011;24447;43.460;25.744;2022-10-31T16:52:54;8.70;;;3.58;;
38693;SDS011;24447;43.460;25.744;2022-10-31T16:55:20;12.75;;;5.85;;
38693;SDS011;24447;43.460;25.744;2022-10-31T16:57:47;22.77;;;10.10;;
38693;SDS011;24447;43.460;25.744;2022-10-31T17:00:23;17.63;;;7.75;;
38693;SDS011;24447;43.460;25.744;2022-10-31T17:02:51;31.27;;;13.10;;
38693;SDS011;24447;43.460;25.744;2022-10-31T17:05:19;40.40;;;15.55;;
38693;SDS011;24447;43.460;25.744;2022-10-31T17:07:46;38.88;;;12.20;;
38693;SDS011;24447;43.460;25.744;2022-10-31T17:10:13;36.63;;;13.52;;
38693;SDS011;24447;43.460;25.744;2022-10-31T17:12:43;32.47;;;12.35;;
38693;SDS011;24447;43.460;25.744;2022-10-31T17:15:15;22.92;;;7.93;;
38693;SDS011;24447;43.460;25.744;2022-10-31T17:17:43;22.92;;;9.38;;
38693;SDS011;24447;43.460;25.744;2022-10-31T17:20:16;28.23;;;10.88;;
38693;SDS011;24447;43.460;25.744;2022-10-31T17:22:44;39.67;;;15.98;;
38693;SDS011;24447;43.460;25.744;2022-10-31T17:25:17;44.65;;;16.27;;
38693;SDS011;24447;43.460;25.744;2022-10-31T17:27:44;26.45;;;11.38;;
38693;SDS011;24447;43.460;25.744;2022-10-31T17:30:10;21.13;;;8.15;;
38693;SDS011;24447;43.460;25.744;2022-10-31T17:32:38;23.30;;;8.00;;
38693;SDS011;24447;43.460;25.744;2022-10-31T17:35:04;38.88;;;11.82;;
38693;SDS011;24447;43.460;25.744;2022-10-31T17:37:31;30.48;;;11.57;;
38693;SDS011;24447;43.460;25.744;2022-10-31T17:39:56;31.13;;;11.40;;
38693;SDS011;24447;43.460;25.744;2022-10-31T17:42:22;23.42;;;9.93;;
38693;SDS011;24447;43.460;25.744;2022-10-31T17:44:48;22.23;;;8.60;;
38693;SDS011;24447;43.460;25.744;2022-10-31T17:47:14;19.83;;;8.25;;
38693;SDS011;24447;43.460;25.744;2022-10-31T17:49:40;15.13;;;7.15;;
38693;SDS011;24447;43.460;25.744;2022-10-31T17:52:06;15.57;;;5.72;;
38693;SDS011;24447;43.460;25.744;2022-10-31T17:54:32;19.83;;;7.88;;
38693;SDS011;24447;43.460;25.744;2022-10-31T17:56:58;22.55;;;12.43;;
38693;SDS011;24447;43.460;25.744;2022-10-31T17:59:24;23.15;;;9.40;;
38693;SDS011;24447;43.460;25.744;2022-10-31T18:01:51;19.08;;;7.80;;
38693;SDS011;24447;43.460;25.744;2022-10-31T18:04:17;19.33;;;7.47;;
38693;SDS011;24447;43.460;25.744;2022-10-31T18:06:43;16.10;;;6.22;;
38693;SDS011;24447;43.460;25.744;2022-10-31T18:09:09;17.02;;;8.07;;
38693;SDS011;24447;43.460;25.744;2022-10-31T18:11:35;21.48;;;7.95;;
38693;SDS011;24447;43.460;25.744;2022-10-31T18:14:01;16.90;;;6.65;;
38693;SDS011;24447;43.460;25.744;2022-10-31T18:16:27;19.70;;;8.77;;
38693;SDS011;24447;43.460;25.744;2022-10-31T18:18:54;13.25;;;6.20;;
38693;SDS011;24447;43.460;25.744;2022-10-31T18:21:23;17.50;;;7.38;;
38693;SDS011;24447;43.460;25.744;2022-10-31T18:23:53;15.85;;;7.20;;
38693;SDS011;24447;43.460;25.744;2022-10-31T18:26:21;14.98;;;6.75;;
38693;SDS011;24447;43.460;25.744;2022-10-31T18:28:47;15.57;;;7.35;;
38693;SDS011;24447;43.460;25.744;2022-10-31T18:31:13;17.58;;;6.95;;
38693;SDS011;24447;43.460;25.744;2022-10-31T18:33:39;15.57;;;7.75;;
38693;SDS011;24447;43.460;25.744;2022-10-31T18:36:06;15.77;;;6.80;;
38693;SDS011;24447;43.460;25.744;2022-10-31T18:38:33;15.05;;;6.13;;
38693;SDS011;24447;43.460;25.744;2022-10-31T18:41:02;17.70;;;7.30;;
38693;SDS011;24447;43.460;25.744;2022-10-31T18:43:28;17.45;;;5.95;;
38693;SDS011;24447;43.460;25.744;2022-10-31T18:45:54;15.90;;;7.32;;
38693;SDS011;24447;43.460;25.744;2022-10-31T18:48:20;18.42;;;8.15;;
38693;SDS011;24447;43.460;25.744;2022-10-31T18:50:46;19.13;;;7.75;;
38693;SDS011;24447;43.460;25.744;2022-10-31T18:53:12;12.65;;;5.32;;
38693;SDS011;24447;43.460;25.744;2022-10-31T18:55:38;10.40;;;5.15;;
38693;SDS011;24447;43.460;25.744;2022-10-31T18:58:05;12.88;;;5.50;;
38693;SDS011;24447;43.460;25.744;2022-10-31T19:00:31;13.75;;;6.15;;
38693;SDS011;24447;43.460;25.744;2022-10-31T19:02:57;9.98;;;5.32;;
38693;SDS011;24447;43.460;25.744;2022-10-31T19:05:22;14.77;;;5.63;;
38693;SDS011;24447;43.460;25.744;2022-10-31T19:07:48;16.45;;;5.88;;
38693;SDS011;24447;43.460;25.744;2022-10-31T19:10:14;18.60;;;6.82;;
38693;SDS011;24447;43.460;25.744;2022-10-31T19:12:40;14.43;;;5.68;;
38693;SDS011;24447;43.460;25.744;2022-10-31T19:15:06;15.65;;;5.75;;
38693;SDS011;24447;43.460;25.744;2022-10-31T19:17:32;18.92;;;5.43;;
38693;SDS011;24447;43.460;25.744;2022-10-31T19:19:58;13.32;;;4.85;;
38693;SDS011;24447;43.460;25.744;2022-10-31T19:22:25;12.00;;;5.30;;
38693;SDS011;24447;43.460;25.744;2022-10-31T19:24:51;14.43;;;4.70;;
38693;SDS011;24447;43.460;25.744;2022-10-31T19:27:16;11.82;;;4.97;;
38693;SDS011;24447;43.460;25.744;2022-10-31T19:29:42;14.93;;;5.88;;
38693;SDS011;24447;43.460;25.744;2022-10-31T19:32:08;13.27;;;5.57;;
38693;SDS011;24447;43.460;25.744;2022-10-31T19:34:34;14.07;;;6.22;;
38693;SDS011;24447;43.460;25.744;2022-10-31T19:37:00;13.00;;;4.85;;
38693;SDS011;24447;43.460;25.744;2022-10-31T19:39:26;11.23;;;5.40;;
38693;SDS011;24447;43.460;25.744;2022-10-31T19:41:52;17.35;;;7.40;;
38693;SDS011;24447;43.460;25.744;2022-10-31T19:44:18;15.73;;;7.07;;
38693;SDS011;24447;43.460;25.744;2022-10-31T19:46:44;17.92;;;7.03;;
38693;SDS011;24447;43.460;25.744;2022-10-31T19:49:10;14.07;;;6.35;;
38693;SDS011;24447;43.460;25.744;2022-10-31T19:51:36;14.82;;;5.78;;
38693;SDS011;24447;43.460;25.744;2022-10-31T19:54:02;11.68;;;5.40;;
38693;SDS011;24447;43.460;25.744;2022-10-31T19:56:28;10.70;;;4.63;;
38693;SDS011;24447;43.460;25.744;2022-10-31T19:58:54;14.57;;;5.60;;
38693;SDS011;24447;43.460;25.744;2022-10-31T20:01:23;13.57;;;5.72;;
38693;SDS011;24447;43.460;25.744;2022-10-31T20:03:49;12.75;;;5.50;;
38693;SDS011;24447;43.460;25.744;2022-10-31T20:06:49;18.33;;;8.27;;
38693;SDS011;24447;43.460;25.744;2022-10-31T20:09:09;17.77;;;7.60;;
38693;SDS011;24447;43.460;25.744;2022-10-31T20:11:37;17.48;;;6.45;;
38693;SDS011;24447;43.460;25.744;2022-10-31T20:14:04;15.00;;;6.05;;
38693;SDS011;24447;43.460;25.744;2022-10-31T20:16:30;17.02;;;5.85;;
38693;SDS011;24447;43.460;25.744;2022-10-31T20:18:56;16.73;;;5.78;;
38693;SDS011;24447;43.460;25.744;2022-10-31T20:21:24;15.90;;;5.93;;
38693;SDS011;24447;43.460;25.744;2022-10-31T20:23:55;13.90;;;4.95;;
38693;SDS011;24447;43.460;25.744;2022-10-31T20:26:22;15.18;;;5.55;;
38693;SDS011;24447;43.460;25.744;2022-10-31T20:28:49;13.63;;;5.97;;
38693;SDS011;24447;43.460;25.744;2022-10-31T20:31:16;12.77;;;6.30;;
38693;SDS011;24447;43.460;25.744;2022-10-31T20:33:46;11.98;;;4.88;;
38693;SDS011;24447;43.460;25.744;2022-10-31T20:36:13;10.45;;;4.75;;
38693;SDS011;24447;43.460;25.744;2022-10-31T20:38:40;12.32;;;4.40;;
38693;SDS011;24447;43.460;25.744;2022-10-31T20:41:07;13.45;;;5.25;;
38693;SDS011;24447;43.460;25.744;2022-10-31T20:43:34;9.40;;;4.28;;
38693;SDS011;24447;43.460;25.744;2022-10-31T20:46:04;11.23;;;4.72;;
38693;SDS011;24447;43.460;25.744;2022-10-31T20:48:31;15.55;;;6.10;;
38693;SDS011;24447;43.460;25.744;2022-10-31T20:50:58;15.60;;;7.10;;
38693;SDS011;24447;43.460;25.744;2022-10-31T20:53:25;13.65;;;5.80;;
38693;SDS011;24447;43.460;25.744;2022-10-31T20:56:01;16.60;;;5.78;;
38693;SDS011;24447;43.460;25.744;2022-10-31T20:58:29;14.90;;;4.75;;
38693;SDS011;24447;43.460;25.744;2022-10-31T21:00:55;15.07;;;6.60;;
38693;SDS011;24447;43.460;25.744;2022-10-31T21:03:21;13.20;;;5.97;;
38693;SDS011;24447;43.460;25.744;2022-10-31T21:05:55;16.95;;;6.05;;
38693;SDS011;24447;43.460;25.744;2022-10-31T21:08:25;10.85;;;5.35;;
38693;SDS011;24447;43.460;25.744;2022-10-31T21:10:52;15.95;;;6.43;;
38693;SDS011;24447;43.460;25.744;2022-10-31T21:13:19;17.77;;;6.03;;
38693;SDS011;24447;43.460;25.744;2022-10-31T21:15:45;17.63;;;7.82;;
38693;SDS011;24447;43.460;25.744;2022-10-31T21:18:11;16.98;;;5.20;;
38693;SDS011;24447;43.460;25.744;2022-10-31T21:20:38;10.35;;;5.15;;
38693;SDS011;24447;43.460;25.744;2022-10-31T21:23:07;9.68;;;5.57;;
38693;SDS011;24447;43.460;25.744;2022-10-31T21:25:36;19.83;;;8.50;;
38693;SDS011;24447;43.460;25.744;2022-10-31T21:28:03;26.50;;;8.88;;
38693;SDS011;24447;43.460;25.744;2022-10-31T21:30:30;14.82;;;6.20;;
38693;SDS011;24447;43.460;25.744;2022-10-31T21:32:55;10.10;;;5.55;;
38693;SDS011;24447;43.460;25.744;2022-10-31T21:35:21;12.40;;;6.40;;
38693;SDS011;24447;43.460;25.744;2022-10-31T21:37:47;27.05;;;9.77;;
38693;SDS011;24447;43.460;25.744;2022-10-31T21:40:13;16.25;;;6.47;;
38693;SDS011;24447;43.460;25.744;2022-10-31T21:42:39;14.00;;;6.20;;
38693;SDS011;24447;43.460;25.744;2022-10-31T21:45:05;15.82;;;7.30;;
38693;SDS011;24447;43.460;25.744;2022-10-31T21:47:31;16.58;;;6.70;;
38693;SDS011;24447;43.460;25.744;2022-10-31T21:49:57;16.10;;;7.55;;
38693;SDS011;24447;43.460;25.744;2022-10-31T21:52:23;17.95;;;7.45;;
38693;SDS011;24447;43.460;25.744;2022-10-31T21:54:49;14.40;;;6.63;;
38693;SDS011;24447;43.460;25.744;2022-10-31T21:57:15;21.08;;;5.95;;
38693;SDS011;24447;43.460;25.744;2022-10-31T21:59:41;17.40;;;6.15;;
38693;SDS011;24447;43.460;25.744;2022-10-31T22:02:12;22.50;;;9.82;;
38693;SDS011;24447;43.460;25.744;2022-10-31T22:04:38;16.77;;;6.40;;
38693;SDS011;24447;43.460;25.744;2022-10-31T22:07:08;13.63;;;5.68;;
38693;SDS011;24447;43.460;25.744;2022-10-31T22:09:34;13.52;;;6.22;;
38693;SDS011;24447;43.460;25.744;2022-10-31T22:12:00;17.75;;;6.60;;
38693;SDS011;24447;43.460;25.744;2022-10-31T22:14:30;12.67;;;5.93;;
38693;SDS011;24447;43.460;25.744;2022-10-31T22:16:56;13.93;;;5.32;;
38693;SDS011;24447;43.460;25.744;2022-10-31T22:19:22;17.95;;;7.55;;
38693;SDS011;24447;43.460;25.744;2022-10-31T22:21:48;13.50;;;6.45;;
38693;SDS011;24447;43.460;25.744;2022-10-31T22:24:14;42.50;;;18.15;;
38693;SDS011;24447;43.460;25.744;2022-10-31T22:26:41;45.10;;;18.80;;
38693;SDS011;24447;43.460;25.744;2022-10-31T22:29:14;16.23;;;5.93;;
38693;SDS011;24447;43.460;25.744;2022-10-31T22:31:42;14.20;;;5.90;;
38693;SDS011;24447;43.460;25.744;2022-10-31T22:34:09;13.65;;;5.70;;
38693;SDS011;24447;43.460;25.744;2022-10-31T22:36:36;16.17;;;5.35;;
38693;SDS011;24447;43.460;25.744;2022-10-31T22:39:02;9.52;;;4.78;;
38693;SDS011;24447;43.460;25.744;2022-10-31T22:41:30;11.48;;;5.72;;
38693;SDS011;24447;43.460;25.744;2022-10-31T22:43:57;14.30;;;5.05;;
38693;SDS011;24447;43.460;25.744;2022-10-31T22:46:24;10.65;;;5.35;;
38693;SDS011;24447;43.460;25.744;2022-10-31T22:48:52;11.75;;;5.93;;
38693;SDS011;24447;43.460;25.744;2022-10-31T22:51:25;17.13;;;6.18;;
38693;SDS011;24447;43.460;25.744;2022-10-31T22:53:59;16.15;;;6.55;;
38693;SDS011;24447;43.460;25.744;2022-10-31T22:56:26;14.15;;;6.13;;
38693;SDS011;24447;43.460;25.744;2022-10-31T22:58:54;13.20;;;4.82;;
38693;SDS011;24447;43.460;25.744;2022-10-31T23:01:22;21.30;;;6.85;;
38693;SDS011;24447;43.460;25.744;2022-10-31T23:06:19;12.93;;;5.78;;
38693;SDS011;24447;43.460;25.744;2022-10-31T23:08:46;17.73;;;6.72;;
38693;SDS011;24447;43.460;25.744;2022-10-31T23:13:54;19.33;;;6.45;;
38693;SDS011;24447;43.460;25.744;2022-10-31T23:16:39;11.98;;;5.85;;
38693;SDS011;24447;43.460;25.744;2022-10-31T23:19:06;15.43;;;6.03;;
38693;SDS011;24447;43.460;25.744;2022-10-31T23:21:42;13.05;;;5.25;;
38693;SDS011;24447;43.460;25.744;2022-10-31T23:24:36;15.18;;;6.22;;
38693;SDS011;24447;43.460;25.744;2022-10-31T23:29:56;12.60;;;5.70;;
38693;SDS011;24447;43.460;25.744;2022-10-31T23:32:33;12.60;;;5.45;;
38693;SDS011;24447;43.460;25.744;2022-10-31T23:35:02;12.45;;;5.60;;
38693;SDS011;24447;43.460;25.744;2022-10-31T23:37:32;11.15;;;5.05;;
38693;SDS011;24447;43.460;25.744;2022-10-31T23:39:59;12.10;;;5.35;;
38693;SDS011;24447;43.460;25.744;2022-10-31T23:42:26;13.45;;;5.97;;
38693;SDS011;24447;43.460;25.744;2022-10-31T23:44:52;11.48;;;4.80;;
38693;SDS011;24447;43.460;25.744;2022-10-31T23:47:19;14.65;;;5.47;;
38693;SDS011;24447;43.460;25.744;2022-10-31T23:49:45;14.48;;;5.95;;
38693;SDS011;24447;43.460;25.744;2022-10-31T23:52:11;8.55;;;4.70;;
38693;SDS011;24447;43.460;25.744;2022-10-31T23:54:37;13.00;;;5.40;;
38693;SDS011;24447;43.460;25.744;2022-10-31T23:57:03;14.27;;;5.70;;
38693;SDS011;24447;43.460;25.744;2022-10-31T23:59:30;12.25;;;4.80;;
